Time;durP1;ratioP1;P1;durP2;ratioP2;P2;SDS_P1;SDS_P2;PMS_P1;PMS_P2;Temp;Humidity;BMP_temperature;BMP_pressure;BME280_temperature;BME280_humidity;BME280_pressure;Samples;Min_cycle;Max_cycle;Signal;HPM_P1;HPM_P2
2022/06/23 00:00:34;;;;;;;6.50;1.90;;;;;;;25.85;35.56;98165.81;4503745;31;20110;-81
2022/06/23 00:03:00;;;;;;;6.57;2.05;;;;;;;25.90;35.54;98169.56;4489533;31;20083;-81
2022/06/23 00:05:28;;;;;;;6.17;2.03;;;;;;;25.82;35.30;98180.50;4489608;31;20119;-82
2022/06/23 00:07:54;;;;;;;;;;;;;;;25.88;34.92;98190.53;4489833;31;20190;-83
2022/06/23 00:10:24;;;;;;;6.43;1.98;;;;;;;25.97;35.42;98215.53;4489622;31;19991;-83
2022/06/23 00:12:50;;;;;;;6.20;2.00;;;;;;;25.85;36.15;98225.16;4503776;31;20076;-82
2022/06/23 00:15:39;;;;;;;5.93;1.90;;;;;;;25.41;36.46;98218.97;4503641;31;20142;-82
2022/06/23 00:18:17;;;;;;;8.68;2.00;;;;;;;25.27;36.25;98214.47;4493766;31;20088;-81
2022/06/23 00:21:03;;;;;;;6.80;1.95;;;;;;;25.25;36.30;98205.75;4489785;31;20092;-82
2022/06/23 00:23:49;;;;;;;6.95;1.90;;;;;;;25.26;35.67;98226.28;4489417;31;20088;-82
2022/06/23 00:26:18;;;;;;;5.53;1.90;;;;;;;25.25;35.23;98225.44;4489344;31;20477;-82
2022/06/23 00:28:46;;;;;;;8.80;2.12;;;;;;;24.99;35.69;98227.81;4503684;31;20205;-81
2022/06/23 00:31:30;;;;;;;7.37;2.05;;;;;;;25.01;35.95;98226.59;4489247;31;20152;-80
2022/06/23 00:33:57;;;;;;;6.87;2.17;;;;;;;25.07;36.03;98231.25;4503634;31;20103;-81
2022/06/23 00:36:46;;;;;;;4.85;2.17;;;;;;;25.03;36.03;98239.87;4503510;31;20081;-81
2022/06/23 00:39:27;;;;;;;6.60;2.00;;;;;;;25.03;35.71;98234.50;4503440;31;20665;-81
2022/06/23 00:41:52;;;;;;;4.93;1.80;;;;;;;25.08;35.77;98235.59;4489397;31;20147;-81
2022/06/23 00:44:26;;;;;;;6.95;1.92;;;;;;;25.02;34.99;98235.53;4489149;31;20079;-81
2022/06/23 00:46:54;;;;;;;5.70;1.80;;;;;;;24.97;34.76;98243.34;4489212;31;20155;-81
2022/06/23 00:49:28;;;;;;;7.43;2.20;;;;;;;24.90;33.78;98254.06;4488917;31;20164;-81
2022/06/23 00:51:57;;;;;;;5.55;1.83;;;;;;;24.65;34.61;98262.44;4503568;31;20096;-81
2022/06/23 00:54:29;;;;;;;8.23;1.70;;;;;;;24.76;35.32;98254.87;4489046;31;20151;-80
2022/06/23 00:57:04;;;;;;;4.32;1.70;;;;;;;24.71;35.48;98250.06;4503253;31;20075;-81
2022/06/23 00:59:39;;;;;;;5.03;1.83;;;;;;;24.75;35.52;98245.97;4489014;31;20172;-81
2022/06/23 01:02:11;;;;;;;4.20;1.50;;;;;;;24.74;35.48;98241.59;4503424;31;20104;-81
2022/06/23 01:05:04;;;;;;;5.45;1.95;;;;;;;24.67;33.21;98246.09;4488945;31;20087;-82
2022/06/23 01:07:39;;;;;;;5.93;1.70;;;;;;;24.75;34.46;98245.97;4503348;31;20075;-82
2022/06/23 01:10:07;;;;;;;5.20;1.65;;;;;;;24.75;35.03;98240.59;4503459;31;20092;-83
2022/06/23 01:12:37;;;;;;;4.95;1.73;;;;;;;24.80;34.43;98246.25;4503376;31;20156;-82
2022/06/23 01:15:27;;;;;;;5.62;1.60;;;;;;;24.75;34.18;98245.97;4488907;31;20088;-82
2022/06/23 01:17:59;;;;;;;5.22;1.87;;;;;;;24.74;35.44;98249.69;4503228;31;20217;-82
2022/06/23 01:20:39;;;;;;;5.43;1.50;;;;;;;24.75;36.21;98256.75;4489007;31;20439;-83
2022/06/23 01:23:23;;;;;;;8.05;1.85;;;;;;;24.67;34.90;98259.56;4488919;31;20119;-81
2022/06/23 01:26:03;;;;;;;5.78;1.75;;;;;;;24.44;35.51;98262.31;4503523;31;20084;-82
2022/06/23 01:28:32;;;;;;;5.22;1.70;;;;;;;24.43;37.26;98258.75;4503435;31;20132;-82
2022/06/23 01:31:10;;;;;;;7.05;1.67;;;;;;;24.22;36.07;98256.84;4488968;31;20462;-82
2022/06/23 01:33:41;;;;;;;;;;;;;;;24.25;39.88;98244.84;4476147;31;20104;-82
2022/06/23 01:36:21;;;;;;;6.80;2.33;;;;;;;24.32;39.78;98243.94;4503032;31;19967;-83
2022/06/23 01:38:59;;;;;;;5.37;1.98;;;;;;;24.26;41.61;98249.19;4503208;31;20072;-82
2022/06/23 01:41:33;;;;;;;4.10;1.65;;;;;;;24.16;40.97;98257.53;4488782;31;20087;-82
2022/06/23 01:44:11;;;;;;;5.05;1.70;;;;;;;24.11;40.11;98247.34;4488886;31;20130;-82
2022/06/23 01:46:39;;;;;;;5.87;1.95;;;;;;;24.05;39.81;98261.53;4488831;31;20514;-82
2022/06/23 01:49:16;;;;;;;9.18;1.98;;;;;;;24.01;40.01;98254.84;4503031;31;20076;-81
2022/06/23 01:51:48;;;;;;;5.28;1.62;;;;;;;23.99;41.37;98253.34;4503073;31;20099;-82
2022/06/23 01:54:25;;;;;;;5.20;1.67;;;;;;;23.95;40.73;98250.16;4503099;31;20148;-82
2022/06/23 01:57:12;;;;;;;4.05;1.50;;;;;;;23.90;36.93;98244.53;4488441;31;20435;-82
2022/06/23 02:00:03;;;;;;;5.18;2.00;;;;;;;23.86;37.14;98249.44;4502887;31;20068;-82
2022/06/23 02:02:45;;;;;;;5.18;1.80;;;;;;;23.86;37.61;98253.97;4502731;31;20096;-82
2022/06/23 02:05:35;;;;;;;4.10;1.48;;;;;;;23.84;37.41;98237.19;4488759;31;20103;-82
2022/06/23 02:08:23;;;;;;;5.90;1.73;;;;;;;23.82;37.47;98244.59;4503268;31;20427;-82
2022/06/23 02:11:12;;;;;;;5.62;1.70;;;;;;;23.82;37.79;98255.37;4503180;31;20088;-82
2022/06/23 02:13:59;;;;;;;4.90;1.65;;;;;;;23.61;38.78;98247.94;4502977;31;20179;-82
2022/06/23 02:16:32;;;;;;;5.55;1.65;;;;;;;23.61;36.15;98247.94;4502896;31;20103;-82
2022/06/23 02:19:10;;;;;;;4.65;1.50;;;;;;;23.61;37.37;98238.00;4502848;31;20152;-83
2022/06/23 02:21:44;;;;;;;4.97;1.60;;;;;;;23.69;37.65;98242.47;4502847;31;20107;-83
2022/06/23 02:24:30;;;;;;;5.70;1.70;;;;;;;23.70;37.75;98242.31;4488577;31;20108;-81
2022/06/23 02:27:22;;;;;;;6.30;1.67;;;;;;;23.77;37.47;98236.19;4488426;31;20126;-81
2022/06/23 02:29:48;;;;;;;7.28;1.83;;;;;;;23.71;37.53;98238.59;4502822;31;20088;-81
2022/06/23 02:32:17;;;;;;;5.65;1.75;;;;;;;23.68;37.41;98238.09;4502690;31;20106;-82
2022/06/23 02:34:49;;;;;;;4.95;1.58;;;;;;;23.46;36.85;98258.63;4502636;31;20144;-82
2022/06/23 02:37:58;;;;;;;5.35;1.60;;;;;;;23.60;37.07;98251.62;4488588;31;20099;-82
2022/06/23 02:40:29;;;;;;;5.37;1.60;;;;;;;23.62;36.54;98263.87;4422518;32;20547;-82
2022/06/23 02:42:59;;;;;;;7.43;1.77;;;;;;;23.53;36.87;98256.91;4422409;32;20119;-81
2022/06/23 02:45:56;;;;;;;3.55;1.45;;;;;;;23.63;36.54;98260.19;4422420;32;20145;-82
2022/06/23 02:48:35;;;;;;;6.35;1.75;;;;;;;23.72;35.92;98272.53;4422489;32;20110;-81
2022/06/23 02:51:13;;;;;;;5.82;1.60;;;;;;;23.63;35.97;98275.47;4409733;32;20140;-81
2022/06/23 02:54:03;;;;;;;4.40;1.53;;;;;;;23.66;37.57;98284.03;4422345;32;20158;-81
2022/06/23 02:57:10;;;;;;;5.68;1.85;;;;;;;23.69;38.06;98275.59;4422069;32;20180;-82
2022/06/23 02:59:40;;;;;;;3.40;1.50;;;;;;;23.70;37.37;98279.97;4421762;32;20457;-82
2022/06/23 03:02:37;;;;;;;4.37;1.42;;;;;;;23.59;35.83;98291.13;4422229;32;20216;-82
2022/06/23 03:05:46;;;;;;;4.25;1.73;;;;;;;23.66;36.75;98297.47;4422267;32;20156;-81
2022/06/23 03:08:26;;;;;;;5.85;1.60;;;;;;;23.67;37.37;98301.81;4422217;32;20126;-81
2022/06/23 03:11:05;;;;;;;4.00;1.75;;;;;;;23.62;35.31;98298.00;4453504;31;20130;-81
2022/06/23 03:13:40;;;;;;;4.37;1.60;;;;;;;23.57;34.54;98300.41;4489757;31;20110;-81
2022/06/23 03:16:20;;;;;;;4.40;1.50;;;;;;;23.60;34.75;98306.22;4504114;31;20174;-81
2022/06/23 03:19:02;;;;;;;5.00;1.67;;;;;;;23.41;34.65;98312.06;4504246;31;20091;-81
2022/06/23 03:21:45;;;;;;;3.78;1.42;;;;;;;23.46;34.48;98309.69;4489863;31;20092;-81
2022/06/23 03:24:29;;;;;;;4.90;1.55;;;;;;;23.58;34.99;98305.56;4489991;31;20088;-81
2022/06/23 03:27:34;;;;;;;6.03;1.80;;;;;;;23.45;34.89;98319.63;4504150;31;20083;-81
2022/06/23 03:30:06;;;;;;;4.22;1.73;;;;;;;23.59;35.32;98318.03;4489989;31;20417;-81
2022/06/23 03:32:45;;;;;;;5.28;1.73;;;;;;;23.67;34.53;98317.13;4490145;31;20160;-81
2022/06/23 03:35:24;;;;;;;5.00;1.80;;;;;;;23.78;33.61;98302.41;4489676;31;20446;-81
2022/06/23 03:38:01;;;;;;;5.45;1.70;;;;;;;23.87;32.69;98290.59;4489937;31;20106;-82
2022/06/23 03:43:23;;;;;;;8.57;1.55;;;;;;;23.91;33.87;98308.06;4504035;31;20147;-83
2022/06/23 03:45:56;;;;;;;6.70;1.83;;;;;;;24.02;33.34;98313.00;4503848;31;20154;-82
2022/06/23 03:48:36;;;;;;;5.87;1.62;;;;;;;24.19;33.33;98316.41;4489681;31;20106;-83
2022/06/23 03:51:09;;;;;;;5.78;1.90;;;;;;;24.30;32.91;98317.81;4489671;31;20402;-83
2022/06/23 03:53:39;;;;;;;5.80;1.60;;;;;;;24.57;32.05;98326.31;4503855;31;20096;-83
2022/06/23 03:56:09;;;;;;;4.85;1.70;;;;;;;24.65;31.70;98327.06;4489295;31;20106;-82
2022/06/23 03:58:55;;;;;;;3.80;1.40;;;;;;;24.83;32.79;98328.56;4489668;31;20124;-83
2022/06/23 04:01:31;;;;;;;5.85;1.92;;;;;;;24.95;33.29;98329.75;4489577;31;20117;-81
2022/06/23 04:04:04;;;;;;;4.32;1.80;;;;;;;25.09;31.49;98333.44;4503872;31;20458;-82
2022/06/23 04:06:46;;;;;;;4.57;1.60;;;;;;;25.16;31.68;98333.53;4489527;31;20114;-82
2022/06/23 04:09:18;;;;;;;3.62;1.40;;;;;;;25.34;31.24;98335.84;4476514;31;20096;-82
2022/06/23 04:12:05;;;;;;;3.92;1.40;;;;;;;25.47;30.78;98338.72;4503817;31;20119;-82
2022/06/23 04:14:33;;;;;;;4.80;1.70;;;;;;;25.59;31.30;98339.03;4503746;31;20075;-82
2022/06/23 04:17:47;;;;;;;5.50;1.70;;;;;;;25.69;30.89;98345.81;4503642;31;20080;-82
2022/06/23 04:20:49;;;;;;;5.87;1.60;;;;;;;25.94;30.59;98340.06;4489902;31;20124;-82
2022/06/23 04:23:21;;;;;;;4.57;1.50;;;;;;;26.21;29.22;98345.69;4475761;31;20155;-82
2022/06/23 04:25:56;;;;;;;3.75;1.60;;;;;;;26.24;27.99;98354.22;4489305;31;20099;-81
2022/06/23 04:28:36;;;;;;;6.70;1.60;;;;;;;26.31;28.14;98358.84;4489399;31;20106;-80
2022/06/23 04:31:06;;;;;;;5.32;1.30;;;;;;;26.43;27.94;98355.44;4489487;31;20492;-82
2022/06/23 04:33:35;;;;;;;4.20;1.40;;;;;;;26.54;28.08;98359.47;4489178;31;20123;-82
2022/06/23 04:36:01;;;;;;;4.53;1.62;;;;;;;26.57;28.45;98356.34;4503503;31;20096;-81
2022/06/23 04:38:39;;;;;;;6.18;1.58;;;;;;;26.71;28.76;98367.28;4489191;31;20143;-81
2022/06/23 04:41:19;;;;;;;5.55;1.50;;;;;;;26.82;28.74;98355.94;4489114;31;20103;-81
2022/06/23 04:43:50;;;;;;;4.18;1.62;;;;;;;26.95;28.80;98366.81;4503505;31;20085;-81
2022/06/23 04:46:37;;;;;;;4.00;1.70;;;;;;;27.14;27.49;98373.38;4489264;31;20112;-82
2022/06/23 04:49:30;;;;;;;3.58;1.50;;;;;;;27.32;27.50;98374.72;4489228;31;20071;-81
2022/06/23 04:52:23;;;;;;;5.15;1.50;;;;;;;27.47;27.01;98383.53;4479301;31;20590;-82
2022/06/23 04:55:00;;;;;;;4.78;1.70;;;;;;;27.61;26.23;98387.94;4503463;31;20115;-82
2022/06/23 04:57:31;;;;;;;5.37;1.63;;;;;;;27.65;26.84;98386.50;4489055;31;20097;-81
2022/06/23 04:59:58;;;;;;;8.52;1.80;;;;;;;27.81;26.80;98387.16;4489130;31;20503;-81
2022/06/23 05:02:30;;;;;;;22.15;2.40;;;;;;;27.77;25.91;98392.16;4475886;31;20442;-82
2022/06/23 05:05:10;;;;;;;5.43;1.60;;;;;;;27.65;26.72;98386.50;4489043;31;20580;-82
2022/06/23 05:07:43;;;;;;;4.72;1.70;;;;;;;27.78;26.35;98393.84;4489124;31;20095;-82
2022/06/23 05:10:17;;;;;;;4.53;1.70;;;;;;;27.72;27.17;98396.50;4488957;31;20156;-82
2022/06/23 05:12:50;;;;;;;5.70;1.83;;;;;;;27.90;27.10;98396.81;4489015;31;20084;-82
2022/06/23 05:15:24;;;;;;;16.15;1.85;;;;;;;27.97;27.18;98400.37;4503505;31;20157;-83
2022/06/23 05:17:57;;;;;;;5.82;1.73;;;;;;;28.07;27.20;98401.81;4489235;31;20118;-84
2022/06/23 05:20:39;;;;;;;3.10;1.37;;;;;;;28.26;26.70;98401.03;4489072;31;20126;-84
2022/06/23 05:23:05;;;;;;;5.78;1.60;;;;;;;28.42;25.48;98411.44;4503415;31;20092;-82
2022/06/23 05:25:39;;;;;;;4.80;1.73;;;;;;;28.60;25.01;98415.44;4488903;31;20141;-82
2022/06/23 05:28:07;;;;;;;4.93;1.52;;;;;;;28.59;24.84;98416.50;4503288;31;20130;-81
2022/06/23 05:30:37;;;;;;;7.87;1.77;;;;;;;28.75;24.94;98417.94;4503138;31;20238;-81
2022/06/23 05:33:16;;;;;;;4.37;1.48;;;;;;;28.73;24.57;98428.16;4488922;31;20122;-82
2022/06/23 05:36:05;;;;;;;3.78;1.30;;;;;;;28.87;23.61;98418.97;4487630;31;20148;-81
2022/06/23 05:38:59;;;;;;;7.57;1.60;;;;;;;28.75;24.10;98421.47;4503260;31;20118;-81
2022/06/23 05:41:28;;;;;;;5.05;1.52;;;;;;;28.80;24.79;98420.84;4392538;32;20119;-84
2022/06/23 05:43:54;;;;;;;5.75;1.67;;;;;;;28.85;24.62;98422.94;4400644;32;20572;-81
2022/06/23 05:46:22;;;;;;;6.30;1.65;;;;;;;28.89;24.90;98429.59;4395410;32;20172;-84
2022/06/23 05:49:00;;;;;;;4.03;1.50;;;;;;;28.83;24.06;98432.09;4413412;32;20171;-84
2022/06/23 05:51:41;;;;;;;5.53;1.70;;;;;;;29.02;23.61;98426.88;4420828;32;20106;-83
2022/06/23 05:54:42;;;;;;;5.57;1.50;;;;;;;28.86;23.26;98435.44;4421088;32;20152;-85
2022/06/23 05:57:11;;;;;;;4.82;1.45;;;;;;;28.83;23.83;98437.53;4375089;32;20674;-86
2022/06/23 05:59:39;;;;;;;3.17;1.33;;;;;;;28.82;22.92;98433.16;4356451;32;20177;-87
2022/06/23 06:02:16;;;;;;;5.80;1.45;;;;;;;28.79;23.42;98432.75;4363517;32;20553;-85
2022/06/23 06:04:50;;;;;;;3.70;1.20;;;;;;;29.02;24.10;98443.12;4367552;32;20091;-86
2022/06/23 06:07:19;;;;;;;4.68;1.52;;;;;;;29.15;23.98;98439.63;4375412;32;20103;-86
2022/06/23 06:09:45;;;;;;;8.52;2.08;;;;;;;29.40;24.06;98446.00;4363395;32;20102;-84
2022/06/23 06:12:18;;;;;;;5.57;1.50;;;;;;;29.62;23.08;98442.16;4359074;32;20095;-85
2022/06/23 06:14:47;;;;;;;5.90;1.62;;;;;;;29.63;22.60;98443.81;4355122;32;20216;-83
2022/06/23 06:17:20;;;;;;;9.07;1.67;;;;;;;29.87;22.85;98445.84;4371722;32;20121;-84
2022/06/23 06:19:46;;;;;;;7.00;1.75;;;;;;;30.01;22.24;98451.19;4448893;32;20113;-83
2022/06/23 06:22:22;;;;;;;6.57;1.70;;;;;;;30.04;22.63;98459.75;4436344;32;20150;-84
2022/06/23 06:24:50;;;;;;;6.20;1.60;;;;;;;30.18;22.59;98455.91;4423034;32;20077;-83
2022/06/23 06:27:16;;;;;;;15.00;2.28;;;;;;;30.36;22.24;98454.34;4434085;32;20104;-84
2022/06/23 06:29:43;;;;;;;5.03;1.40;;;;;;;30.47;22.06;98456.34;4437772;32;20115;-84
2022/06/23 06:32:21;;;;;;;7.10;1.70;;;;;;;30.64;21.82;98453.94;4467551;32;20092;-82
2022/06/23 06:34:54;;;;;;;6.07;1.73;;;;;;;30.84;21.62;98451.03;4484711;32;20108;-86
2022/06/23 06:37:23;;;;;;;15.38;2.10;;;;;;;30.89;21.46;98451.25;4470191;31;20509;-85
2022/06/23 06:39:54;;;;;;;4.87;1.60;;;;;;;30.98;21.41;98459.94;4471682;32;20175;-90
2022/06/23 06:42:25;;;;;;;12.75;2.00;;;;;;;31.16;20.87;98462.69;4481597;32;20095;-84
2022/06/23 06:44:52;;;;;;;6.47;1.50;;;;;;;31.08;21.73;98460.28;4470678;32;20500;-83
2022/06/23 06:47:23;;;;;;;7.47;1.65;;;;;;;31.05;21.82;98460.72;4470470;32;20104;-81
2022/06/23 06:49:48;;;;;;;15.32;2.78;;;;;;;31.09;21.80;98464.62;4470557;32;20451;-81
2022/06/23 06:52:15;;;;;;;5.15;1.50;;;;;;;31.26;21.20;98464.91;4470184;32;20148;-81
2022/06/23 06:54:45;;;;;;;8.82;1.60;;;;;;;31.23;21.05;98470.78;4484053;32;20566;-81
2022/06/23 06:57:19;;;;;;;10.70;2.37;;;;;;;31.25;21.36;98474.09;4465258;32;167733;-81
2022/06/23 06:59:48;;;;;;;6.80;1.45;;;;;;;31.23;21.58;98476.22;4470167;32;20522;-80
2022/06/23 07:02:19;;;;;;;14.65;2.08;;;;;;;31.28;20.83;98476.37;4484741;31;20155;-80
2022/06/23 07:04:54;;;;;;;21.65;2.83;;;;;;;31.17;21.39;98477.94;4484550;32;20429;-80
2022/06/23 07:07:24;;;;;;;4.90;1.50;;;;;;;31.28;21.58;98481.00;4474516;32;20092;-80
2022/06/23 07:10:07;;;;;;;6.78;1.75;;;;;;;31.26;20.72;98473.06;4470112;32;20171;-80
2022/06/23 07:12:39;;;;;;;5.37;1.55;;;;;;;31.04;20.78;98480.81;4484522;32;20439;-80
2022/06/23 07:15:30;;;;;;;5.80;1.67;;;;;;;31.06;21.01;98480.56;4484474;31;20089;-81
2022/06/23 07:18:02;;;;;;;6.72;1.70;;;;;;;30.84;21.28;98485.56;4469842;32;20116;-80
2022/06/23 07:20:44;;;;;;;8.30;1.80;;;;;;;30.61;22.01;98486.16;4476169;31;20087;-81
2022/06/23 07:23:15;;;;;;;8.07;1.77;;;;;;;30.68;22.15;98492.41;4474845;32;20115;-82
2022/06/23 07:25:48;;;;;;;8.35;1.52;;;;;;;30.65;22.08;98493.66;4471846;32;20139;-83
2022/06/23 07:28:22;;;;;;;16.02;2.47;;;;;;;30.64;21.88;98486.56;4471981;32;20126;-86
2022/06/23 07:30:55;;;;;;;6.50;1.80;;;;;;;30.80;22.44;98487.06;4470727;32;20537;-85
2022/06/23 07:33:56;;;;;;;7.32;1.67;;;;;;;30.69;21.68;98486.72;4470168;32;20110;-85
2022/06/23 07:36:24;;;;;;;4.05;1.42;;;;;;;30.58;22.15;98495.59;4484402;32;20472;-85
2022/06/23 07:38:54;;;;;;;4.87;1.60;;;;;;;30.54;22.50;98500.66;4485103;32;20100;-85
2022/06/23 07:41:26;;;;;;;6.00;1.80;;;;;;;30.24;22.42;98511.25;4470963;32;20176;-85
2022/06/23 07:44:01;;;;;;;17.80;2.60;;;;;;;29.70;23.22;98507.91;4485133;32;20071;-85
2022/06/23 07:46:26;;;;;;;5.40;1.75;;;;;;;29.69;23.53;98510.81;4485566;32;20080;-85
2022/06/23 07:48:52;;;;;;;6.97;2.00;;;;;;;29.62;23.09;98519.00;4471702;32;20123;-85
2022/06/23 07:51:17;;;;;;;10.52;1.90;;;;;;;29.50;23.26;98526.97;4485798;32;20469;-85
2022/06/23 07:53:46;;;;;;;5.45;1.75;;;;;;;29.43;23.81;98514.47;4458468;32;20073;-85
2022/06/23 07:56:17;;;;;;;9.48;1.90;;;;;;;29.42;23.43;98510.94;4485555;32;20375;-85
2022/06/23 07:58:43;;;;;;;8.38;1.65;;;;;;;29.34;23.86;98533.69;4472044;32;20169;-85
2022/06/23 08:01:27;;;;;;;22.40;3.00;;;;;;;29.20;23.79;98526.59;4487977;32;20131;-85
2022/06/23 08:04:05;;;;;;;11.30;2.17;;;;;;;29.20;23.98;98519.28;4473730;32;20160;-85
2022/06/23 08:06:33;;;;;;;4.03;1.48;;;;;;;29.40;23.71;98519.28;4473491;32;20423;-85
2022/06/23 08:09:10;;;;;;;8.13;1.60;;;;;;;29.48;23.76;98520.09;4473742;32;20100;-85
2022/06/23 08:14:27;;;;;;;5.85;1.60;;;;;;;29.36;23.41;98517.19;4475909;32;20109;-85
2022/06/23 08:16:53;;;;;;;6.53;1.83;;;;;;;29.25;24.11;98515.97;4473968;32;20076;-85
2022/06/23 08:19:29;;;;;;;4.22;1.40;;;;;;;29.46;24.03;98519.44;4473753;32;20156;-85
2022/06/23 08:22:11;;;;;;;7.28;1.60;;;;;;;29.00;23.86;98523.88;4487885;32;20160;-85
2022/06/23 08:24:38;;;;;;;5.70;1.40;;;;;;;29.26;23.28;98525.75;4473606;32;20084;-85
2022/06/23 08:27:14;;;;;;;5.62;1.75;;;;;;;29.24;23.21;98521.59;4473825;32;20466;-85
2022/06/23 08:29:43;;;;;;;7.95;1.83;;;;;;;29.06;23.46;98514.91;4473431;32;20520;-85
2022/06/23 08:32:09;;;;;;;7.30;1.80;;;;;;;29.06;23.50;98519.50;4487731;32;20161;-85
2022/06/23 08:34:38;;;;;;;3.05;1.40;;;;;;;29.13;23.71;98517.63;4473525;32;20080;-85
2022/06/23 08:37:13;;;;;;;6.78;1.50;;;;;;;29.13;23.52;98510.34;4473485;32;20123;-85
2022/06/23 08:39:51;;;;;;;3.90;1.52;;;;;;;29.21;23.63;98515.53;4473663;32;20171;-85
2022/06/23 08:42:44;;;;;;;5.05;1.33;;;;;;;29.38;23.17;98505.09;4473586;32;20468;-85
2022/06/23 08:45:41;;;;;;;10.13;1.60;;;;;;;29.45;23.31;98506.94;4487708;32;20088;-85
2022/06/23 08:48:11;;;;;;;6.97;1.60;;;;;;;29.53;23.18;98512.97;4473391;32;20147;-85
2022/06/23 08:50:56;;;;;;;6.90;1.67;;;;;;;29.59;22.82;98514.84;4473458;32;20454;-86
2022/06/23 08:53:29;;;;;;;4.95;1.37;;;;;;;29.80;22.72;98512.91;4487672;32;20164;-86
2022/06/23 08:56:07;;;;;;;4.05;1.42;;;;;;;29.77;22.12;98513.34;4473487;32;20092;-85
2022/06/23 08:58:59;;;;;;;4.40;1.55;;;;;;;29.83;22.36;98512.50;4473729;32;20115;-85
2022/06/23 09:01:27;;;;;;;4.85;1.60;;;;;;;29.69;23.15;98502.69;4473253;32;20108;-85
2022/06/23 09:03:58;;;;;;;4.53;1.52;;;;;;;29.67;23.40;98504.78;4487455;32;20091;-85
2022/06/23 09:06:39;;;;;;;10.93;2.05;;;;;;;29.65;23.24;98506.87;4473398;32;20092;-85
2022/06/23 09:09:24;;;;;;;10.75;2.42;;;;;;;29.60;22.83;98500.22;4473302;32;20145;-85
2022/06/23 09:11:57;;;;;;;7.22;1.70;;;;;;;29.77;23.09;98510.66;4487596;32;20096;-85
2022/06/23 09:15:14;;;;;;;6.75;1.80;;;;;;;29.77;23.03;98516.06;4473422;32;20134;-85
2022/06/23 09:18:00;;;;;;;6.50;1.40;;;;;;;29.73;22.65;98512.94;4438657;32;20208;-86
2022/06/23 09:20:32;;;;;;;8.25;1.62;;;;;;;29.58;22.49;98506.91;4438774;32;20078;-86
2022/06/23 09:23:28;;;;;;;7.50;1.75;;;;;;;29.82;22.99;98504.56;4438614;32;20184;-86
2022/06/23 09:26:05;;;;;;;4.00;1.33;;;;;;;29.94;22.51;98497.38;4438712;32;20295;-85
2022/06/23 09:28:44;;;;;;;4.07;1.45;;;;;;;30.14;22.30;98498.13;4438504;32;20112;-85
2022/06/23 09:31:27;;;;;;;5.20;1.42;;;;;;;30.06;22.18;98497.56;4425665;32;20189;-85
2022/06/23 09:33:56;;;;;;;4.65;1.50;;;;;;;30.02;20.91;98493.59;4438505;32;20113;-85
2022/06/23 09:36:51;;;;;;;4.70;1.55;;;;;;;29.96;21.01;98515.16;4438429;32;20117;-85
2022/06/23 09:39:34;;;;;;;2.95;1.20;;;;;;;29.89;20.13;98508.09;4438452;32;20232;-85
2022/06/23 09:42:13;;;;;;;7.43;1.55;;;;;;;30.14;19.74;98505.47;4438371;32;20124;-85
2022/06/23 09:45:05;;;;;;;4.45;1.40;;;;;;;30.01;19.50;98503.62;4425592;32;20102;-85
2022/06/23 09:47:31;;;;;;;7.45;1.87;;;;;;;29.99;19.55;98506.56;4438452;32;20127;-85
2022/06/23 09:50:24;;;;;;;4.60;1.60;;;;;;;30.30;19.29;98504.94;4438283;32;20149;-86
2022/06/23 09:53:32;;;;;;;4.70;1.40;;;;;;;30.51;19.50;98495.62;4453734;32;20149;-85
2022/06/23 09:56:09;;;;;;;3.72;1.30;;;;;;;30.84;19.32;98491.00;4422610;32;20171;-86
2022/06/23 09:58:49;;;;;;;4.10;1.10;;;;;;;30.99;19.81;98493.44;4422967;32;20121;-85
2022/06/23 10:01:45;;;;;;;6.15;1.40;;;;;;;30.64;19.31;98489.28;4423001;32;20166;-85
2022/06/23 10:04:39;;;;;;;4.30;1.30;;;;;;;31.00;19.64;98495.09;4410035;32;20158;-85
2022/06/23 10:07:33;;;;;;;4.68;1.17;;;;;;;31.05;19.98;98500.69;4422881;32;20128;-85
2022/06/23 10:10:32;;;;;;;3.55;1.10;;;;;;;31.22;18.28;98500.97;4362445;32;20178;-86
2022/06/23 10:13:19;;;;;;;5.30;1.20;;;;;;;30.88;17.12;98503.94;4362483;32;20102;-85
2022/06/23 10:16:06;;;;;;;3.15;1.27;;;;;;;30.89;17.77;98502.06;4362312;32;20263;-85
2022/06/23 10:18:34;;;;;;;4.35;1.40;;;;;;;30.82;18.26;98512.16;4362623;32;20185;-85
2022/06/23 10:21:21;;;;;;;5.40;1.42;;;;;;;30.72;18.72;98502.59;4361866;32;20299;-85
2022/06/23 10:24:13;;;;;;;3.30;1.33;;;;;;;30.84;18.99;98500.00;4362261;32;20087;-85
2022/06/23 10:27:16;;;;;;;4.97;1.30;;;;;;;30.70;19.07;98503.88;4362207;32;20086;-85
2022/06/23 10:30:06;;;;;;;21.20;2.70;;;;;;;30.57;19.41;98504.81;4362316;32;20419;-86
2022/06/23 10:32:42;;;;;;;7.05;2.15;;;;;;;30.60;19.72;98503.53;4400497;32;20860;-85
2022/06/23 10:35:20;;;;;;;5.82;1.30;;;;;;;30.73;19.80;98504.28;4409746;32;20364;-85
2022/06/23 10:38:22;;;;;;;4.93;1.45;;;;;;;30.88;19.01;98505.81;4422647;32;20081;-85
2022/06/23 10:41:01;;;;;;;2.55;1.20;;;;;;;31.14;19.03;98502.06;4416289;32;20153;-85
2022/06/23 10:43:44;;;;;;;7.57;1.50;;;;;;;31.21;18.74;98507.44;4422639;32;20676;-85
2022/06/23 10:46:16;;;;;;;13.50;2.12;;;;;;;31.21;17.71;98511.00;4438210;32;20116;-86
2022/06/23 10:49:00;;;;;;;5.87;1.50;;;;;;;31.28;18.08;98506.31;4486729;32;20093;-85
2022/06/23 10:51:35;;;;;;;5.12;1.40;;;;;;;31.39;17.78;98507.47;4486906;32;20141;-86
2022/06/23 10:54:06;;;;;;;3.10;1.20;;;;;;;31.41;17.39;98494.47;4472491;32;20101;-85
2022/06/23 10:56:57;;;;;;;3.42;1.15;;;;;;;31.45;17.71;98509.28;4472021;32;20392;-86
2022/06/23 10:59:37;;;;;;;3.20;1.30;;;;;;;31.45;17.41;98509.28;4486704;32;20541;-86
2022/06/23 11:02:06;;;;;;;4.78;1.40;;;;;;;31.57;17.34;98501.25;4486670;32;20151;-86
2022/06/23 11:04:35;;;;;;;3.55;1.10;;;;;;;31.65;17.35;98503.66;4486518;32;20474;-85
2022/06/23 11:07:19;;;;;;;5.03;1.33;;;;;;;31.92;17.72;98501.44;4472363;32;20119;-86
2022/06/23 11:10:07;;;;;;;7.75;1.48;;;;;;;32.06;16.97;98496.66;4486541;32;20435;-85
2022/06/23 11:12:40;;;;;;;4.00;1.30;;;;;;;32.18;16.64;98498.63;4486491;32;20104;-86
2022/06/23 11:15:24;;;;;;;4.10;1.35;;;;;;;32.11;16.43;98494.09;4472222;32;20171;-85
2022/06/23 11:18:15;;;;;;;6.10;1.30;;;;;;;32.21;16.11;98490.81;4486447;32;20613;-85
2022/06/23 11:20:55;;;;;;;53.38;5.97;;;;;;;32.24;16.65;98492.25;4486303;32;20503;-86
2022/06/23 11:23:33;;;;;;;10.15;1.77;;;;;;;32.50;16.79;98491.84;4486362;32;20143;-85
2022/06/23 11:26:19;;;;;;;;;;;;;;;32.77;16.54;98493.38;4486517;32;20170;-85
2022/06/23 11:29:03;;;;;;;4.55;1.35;;;;;;;32.93;16.52;98492.66;4486067;32;19972;-85
2022/06/23 11:31:56;;;;;;;4.25;1.50;;;;;;;32.88;16.21;98492.56;4486461;32;20133;-85
2022/06/23 11:35:01;;;;;;;5.37;1.17;;;;;;;32.72;16.59;98485.88;4487926;32;20104;-85
2022/06/23 11:37:50;;;;;;;3.55;1.33;;;;;;;32.84;17.36;98469.53;4474211;32;20131;-85
2022/06/23 11:40:54;;;;;;;5.85;1.50;;;;;;;33.05;16.38;98479.88;4461010;32;20489;-85
2022/06/23 11:43:38;;;;;;;5.93;1.40;;;;;;;32.71;16.41;98485.06;4488339;32;20353;-85
2022/06/23 11:46:21;;;;;;;6.18;1.50;;;;;;;32.85;16.42;98488.38;4488255;32;20092;-85
2022/06/23 11:48:54;;;;;;;6.47;1.20;;;;;;;32.65;16.43;98483.28;4488240;32;20112;-86
2022/06/23 11:51:28;;;;;;;5.78;1.50;;;;;;;32.82;16.70;98479.84;4473918;32;20184;-85
2022/06/23 11:54:24;;;;;;;7.20;1.40;;;;;;;32.96;16.05;98481.28;4488167;32;20073;-86
2022/06/23 11:56:54;;;;;;;4.05;1.30;;;;;;;33.08;15.82;98492.22;4487772;32;20087;-85
2022/06/23 11:59:25;;;;;;;4.65;1.12;;;;;;;32.73;16.61;98493.00;4473893;32;20491;-85
2022/06/23 12:01:50;;;;;;;4.70;1.40;;;;;;;32.83;17.00;98493.25;4488063;32;20103;-85
2022/06/23 12:04:32;;;;;;;4.62;1.50;;;;;;;32.85;16.60;98498.47;4473726;32;20080;-85
2022/06/23 12:07:14;;;;;;;6.35;1.55;;;;;;;32.83;16.41;98490.53;4473655;32;20451;-85
2022/06/23 12:10:17;;;;;;;4.85;1.20;;;;;;;32.69;17.03;98494.53;4488022;32;20107;-85
2022/06/23 12:12:44;;;;;;;5.18;1.30;;;;;;;32.75;16.79;98490.88;4488249;32;20432;-86
2022/06/23 12:15:12;;;;;;;29.83;2.67;;;;;;;32.79;16.91;98481.16;4473733;32;20088;-85
2022/06/23 12:17:41;;;;;;;7.00;1.40;;;;;;;32.81;17.14;98486.38;4473992;32;20109;-86
2022/06/23 12:20:35;;;;;;;10.82;1.55;;;;;;;32.98;16.97;98490.06;4460564;32;20092;-86
2022/06/23 12:23:03;;;;;;;14.85;2.17;;;;;;;32.90;17.03;98488.53;4487920;32;20110;-85
2022/06/23 12:25:51;;;;;;;10.93;1.65;;;;;;;32.72;17.11;98489.47;4487853;32;20730;-85
2022/06/23 12:28:42;;;;;;;3.50;1.40;;;;;;;32.59;17.17;98489.66;4473680;32;20093;-85
2022/06/23 12:31:25;;;;;;;7.47;1.65;;;;;;;32.53;16.90;98485.94;4487579;32;20114;-86